Latest Observation

25 Stations

15 Minute Data | America/Los_Angeles
as of 9/3/26 12:04 PM PDT
Station Date Time Temp (°F) RH (%) Dew Pt (°F) Wind Spd (mph) Wind Dir (°) Wind Gust (mph) Latest Rain (In) Daily Rain (In) Daily Min Temp (°F) Daily Max Temp (°F)
Rockpile Upper (Cooley) 9/3/26 1200 59.4   3.1 89   11 56.0   0.6 2.7   3.5 WNW | 294 10.7   1.1 0.00 0.18 52.2   0.6 60.2   3.6
Rockpile Lower (Cooley) 9/3/26 1145 62.2   0.9 82   3 56.6   0.2 7.8   5.3 W | 271 12.3   4.7 0.00 0.18 54.9   0.3 63.5   1.1
Cloverdale-East (Ranch 83) 9/3/26 1200 68.3   0.6 - - 2.9   1.2 SSE | 161 10.3   4.2 0.00 0.05 58.3   3.3 69.0   0.9
Cloverdale-SE (Ranch 38) 9/3/26 1200 66.2   0.4 81   7 60.2   2.2 6.0   1.2 S | 169 13.3   0.3 0.00 0.04 57.3   0.9 66.6   1.1
Geyserville-North (Hoffman) 9/3/26 1200 67.8   2.6 83   14 62.4   2.7 4.3   0.0 ESE | 105 10.4   1.6 0.00 0.00 59.4   0.4 68.1   3.3
Geyserville (Ranch 3) 9/3/26 1200 68.2   2.7 82   17 62.4   4.0 4.2   1.2 ESE | 104 8.3   1.4 0.00 0.03 59.0   0.2 68.6   2.6
Geyserville-East (Ranch 40) 9/3/26 1200 64.3   1.8 90   13 61.4   2.7 8.5   0.5 SSE | 167 12.4   1.0 0.00 0.02 57.5   0.4 64.7   2.4
Geyserville-South (Nervo Station) 9/3/26 1200 67.7   0.3 - - 3.7   0.5 SSE | 162 9.1   0.3 0.00 0.07 57.8   0.0 67.9   2.2
Peterson (Ranch 09) 9/3/26 1200 67.6   1.0 77   7 60.2   1.6 5.3   2.4 SSE | 152 9.0   2.3 0.00 0.06 56.6   1.2 68.1   1.3
Crazy Creek Ranch 9/3/26 1200 68.3   0.4 83   1 63.0   0.7 4.2   1.6 SSE | 158 8.3   1.2 0.00 0.07 57.1   2.4 68.3   0.4
Whitton Ranch (201e) 9/3/26 1200 70.4   0.9 73   6 61.3   1.6 4.6   0.5 SSE | 152 8.5   0.2 0.00 0.08 56.4   1.6 71.8   1.0
Lytton East (Shop Hill Bottom) 9/3/26 1200 67.7   2.4 78   12 60.5   2.5 4.9   0.9 S | 173 8.2   0.2 0.00 0.08 57.9   0.2 67.9   2.9
Lytton East (Hill 5) 9/3/26 1200 67.0   1.7 80   12 60.7   2.8 7.2   2.6 S | 177 12.3   2.0 0.00 0.08 57.7   0.2 67.4   1.6
Lytton West Lower (Lew 6) 9/3/26 1200 67.8   2.2 78   11 60.8   2.2 4.6   0.6 SE | 144 10.0   2.7 0.00 0.08 58.1   0.1 68.0   2.4
Lytton West Hill (23PS) 9/3/26 1200 67.3   1.0 80   9 61.0   2.2 4.6   0.3 SSE | 152 7.8   0.9 0.00 0.08 58.5   0.1 68.2   0.9
Big River 9/3/26 1200 66.3   0.0 84   1 61.5   0.5 5.3   2.2 SSE | 163 13.1   7.1 0.00 0.09 58.3   0.2 66.8   0.3
Jimtown-North (Piccolo Ranch 15) 9/3/26 1200 69.6   1.2 72   2 60.1   1.9 2.5   0.1 SSE | 150 8.3   2.4 0.00 0.04 55.9   0.7 70.1   0.4
HWY 128/Chalk Hill Rd (Landslide) 9/3/26 1200 66.5   0.9 87   12 62.6   3.1 4.1   0.4 S | 188 8.9   1.6 0.00 0.13 57.2   1.0 67.3   2.0
N Chalk Hill Rd (Ranch 63) 9/3/26 1200 61.5   1.7 99   1 61.3   1.8 3.7   2.4 S | 169 7.5   4.8 0.00 0.09 53.8   0.5 61.8   1.7
Newman Knights Valley 8/18/26 0015 56.2   1.8 85   4 51.7   0.4 0.8   3.5 NE | 55 2.3   5.8 0.00 0.00 55.0   1.2 88.3   0.6
Knights Valley (Bavarian Lion) 9/3/26 1200 63.8   1.6 91   14 61.1   3.2 3.2   0.4 W | 278 7.7   1.0 0.00 0.12 52.9   1.3 65.1   1.1
Red Tail 9/3/26 1200 65.0   3.5 89   12 61.7   0.9 3.7   1.0 S | 171 10.6   0.4 0.00 0.11 55.2   1.6 65.8   3.5
Franz Valley (Stornetta) 9/3/26 1200 62.9   2.3 90   12 59.9   1.8 3.2   1.3 SW | 235 8.8   2.1 0.00 0.24 53.7   0.4 63.2   2.9
Upper Dry Creek Valley 9/3/26 1200 69.5   1.5 67   3 58.1   0.3 3.6   0.3 WNW | 296 7.4   0.2 0.00 0.04 59.1   4.4 69.8   1.0
Lower Dry Creek Valley 9/3/26 1200 69.4   0.9 72   7 60.1   1.8 0.6   2.8 SSE | 156 6.4   3.5 0.00 0.08 58.4   2.7 70.0   1.3
Max     70.4 99 63.0 8.5 - 13.3 0.00 0.24 59.4 71.8
Avg     66.4 82 60.6 4.4 - 9.6 0.00 - - -
Min     59.4 67 56.0 0.6 - 6.4 0.00 0.00 52.2 60.2